Middleburg, North Carolina
Current Conditions -  °F | °C
As of 1:55 PM on Friday 21 Nov 2014 (Local Time) from KHNZ Reporting Station
Clear Clear  
Wind Chill: 39°   Ceiling: Unl
Heat Index: 43°   Visibility: 10mi
Dew Point:   Wind: 6mph
Humidity: 22%   Direction: 340°NNW
Pressure: 30.44"   Gusts: NA
Location:  36.4°N, 78.32°W
Report Text: KHNZ 211855Z AUTO 34005KT 10SM CLR 06/M15 A3044 RMK AO2 T00591146
Loading
Personal Weather Stations






























Interactive Weather Map New forecast layout! Learn more

10-Day Weather Forecast

Advertisements
Track Severe Weather on mobile